createdAt,value
2019-02-12T00:01:40.248Z,3.97
2019-02-12T00:04:11.552Z,4.20
2019-02-12T00:06:42.829Z,3.83
2019-02-12T00:09:14.118Z,2.87
2019-02-12T00:11:45.413Z,4.23
2019-02-12T00:14:16.665Z,3.03
2019-02-12T00:16:47.861Z,3.00
2019-02-12T00:19:19.112Z,3.40
2019-02-12T00:21:50.431Z,2.63
2019-02-12T00:24:21.691Z,3.50
2019-02-12T00:26:52.994Z,2.70
2019-02-12T00:29:24.236Z,2.83
2019-02-12T00:31:55.582Z,3.57
2019-02-12T00:34:26.866Z,2.70
2019-02-12T00:36:58.143Z,3.93
2019-02-12T00:39:29.391Z,3.50
2019-02-12T00:42:00.723Z,3.33
2019-02-12T00:44:31.983Z,3.50
2019-02-12T00:47:03.234Z,3.97
2019-02-12T00:49:34.448Z,3.23
2019-02-12T00:52:05.737Z,3.90
2019-02-12T00:54:37.065Z,2.63
2019-02-12T00:57:08.430Z,4.33
2019-02-12T00:59:39.742Z,2.97
2019-02-12T01:02:11.095Z,3.03
2019-02-12T01:04:42.383Z,3.67
2019-02-12T01:07:13.659Z,4.10
2019-02-12T01:09:44.960Z,3.43
2019-02-12T01:12:16.327Z,3.63
2019-02-12T01:14:47.611Z,3.50
2019-02-12T01:17:18.907Z,2.80
2019-02-12T01:19:50.234Z,3.13
2019-02-12T01:22:21.468Z,4.43
2019-02-12T01:24:52.716Z,4.27
2019-02-12T01:27:23.902Z,4.07
2019-02-12T01:29:55.317Z,4.70
2019-02-12T01:32:26.545Z,3.47
2019-02-12T01:34:57.813Z,3.40
2019-02-12T01:37:29.085Z,3.60
2019-02-12T01:40:00.309Z,3.77
2019-02-12T01:42:31.584Z,4.87
2019-02-12T01:45:02.856Z,4.23
2019-02-12T01:47:34.160Z,5.87
2019-02-12T01:50:10.336Z,4.30
2019-02-12T01:52:41.712Z,4.87
2019-02-12T01:55:12.954Z,3.70
2019-02-12T01:57:44.294Z,3.80
2019-02-12T02:00:16.707Z,4.50
2019-02-12T02:02:48.021Z,5.20
2019-02-12T02:05:19.265Z,4.60
2019-02-12T02:07:50.460Z,5.27
2019-02-12T02:10:21.611Z,4.53
2019-02-12T02:12:52.951Z,5.80
2019-02-12T02:15:24.234Z,5.00
2019-02-12T02:17:55.511Z,5.83
2019-02-12T02:20:26.921Z,5.70
2019-02-12T02:22:58.139Z,6.23
2019-02-12T02:25:29.406Z,6.20
2019-02-12T02:28:00.625Z,6.03
2019-02-12T02:30:31.913Z,6.13
2019-02-12T02:33:03.240Z,7.70
2019-02-12T02:35:34.523Z,6.60
2019-02-12T02:38:05.701Z,6.93
2019-02-12T02:40:37.055Z,6.03
2019-02-12T02:43:08.326Z,6.67
2019-02-12T02:45:39.615Z,7.20
2019-02-12T02:48:10.877Z,7.80
2019-02-12T02:50:42.173Z,9.30
2019-02-12T02:53:13.424Z,8.50
2019-02-12T02:55:44.711Z,8.03
2019-02-12T02:58:16.032Z,7.70
2019-02-12T03:00:47.322Z,8.83
2019-02-12T03:03:18.658Z,8.57
2019-02-12T03:05:49.908Z,9.30
2019-02-12T03:08:21.218Z,8.90
2019-02-12T03:10:52.467Z,7.60
2019-02-12T03:13:23.789Z,8.50
2019-02-12T03:15:55.180Z,8.70
2019-02-12T03:18:26.466Z,9.60
2019-02-12T03:20:57.701Z,8.10
2019-02-12T03:23:28.988Z,9.80
2019-02-12T03:26:00.260Z,8.67
2019-02-12T03:28:32.528Z,9.27
2019-02-12T03:31:03.826Z,10.50
2019-02-12T03:33:35.110Z,10.73
2019-02-12T03:36:06.415Z,10.20
2019-02-12T03:38:39.736Z,9.50
2019-02-12T03:41:10.762Z,11.33
2019-02-12T03:43:42.037Z,9.40
2019-02-12T03:46:13.395Z,9.20
2019-02-12T03:48:44.676Z,9.47
2019-02-12T03:51:16.037Z,11.60
2019-02-12T03:53:47.297Z,10.73
2019-02-12T03:56:18.548Z,10.13
2019-02-12T03:58:50.243Z,11.47
2019-02-12T04:01:22.057Z,10.47
2019-02-12T04:03:53.926Z,10.20
2019-02-12T04:06:25.232Z,9.60
2019-02-12T04:08:56.553Z,10.17
2019-02-12T04:11:27.926Z,12.03
2019-02-12T04:13:59.263Z,11.33
2019-02-12T04:16:30.648Z,11.60
2019-02-12T04:19:01.905Z,12.00
2019-02-12T04:21:33.205Z,11.50
2019-02-12T04:24:04.642Z,10.43
2019-02-12T04:26:35.900Z,11.63
2019-02-12T04:29:11.423Z,12.00
2019-02-12T04:31:42.684Z,13.23
2019-02-12T04:34:13.998Z,12.63
2019-02-12T04:36:45.216Z,12.73
2019-02-12T04:39:16.491Z,12.87
2019-02-12T04:41:47.798Z,11.73
2019-02-12T04:44:19.136Z,12.87
2019-02-12T04:46:50.437Z,11.90
2019-02-12T04:49:21.746Z,12.33
2019-02-12T04:51:52.987Z,12.57
2019-02-12T04:54:24.346Z,12.73
2019-02-12T04:56:55.537Z,12.13
2019-02-12T04:59:29.204Z,10.40
2019-02-12T05:02:00.496Z,12.60
2019-02-12T05:04:31.747Z,12.20
2019-02-12T05:07:03.034Z,10.47
2019-02-12T05:09:35.508Z,11.57
2019-02-12T05:12:08.365Z,10.50
2019-02-12T05:14:39.575Z,10.97
2019-02-12T05:17:10.751Z,11.07
2019-02-12T05:19:42.035Z,10.90
2019-02-12T05:22:13.334Z,12.80
2019-02-12T05:24:44.572Z,11.27
2019-02-12T05:27:15.883Z,12.10
2019-02-12T05:29:48.137Z,12.87
2019-02-12T05:32:19.437Z,12.30
2019-02-12T05:35:09.690Z,11.90
2019-02-12T05:37:40.990Z,10.73
2019-02-12T05:40:12.340Z,12.10
2019-02-12T05:42:43.623Z,12.10
2019-02-12T05:45:14.932Z,11.97
2019-02-12T05:47:46.162Z,12.37
2019-02-12T05:50:17.498Z,12.80
2019-02-12T05:52:54.265Z,10.60
2019-02-12T05:55:21.655Z,10.73
2019-02-12T05:57:52.938Z,10.40
2019-02-12T06:00:26.551Z,10.53
2019-02-12T06:02:57.821Z,10.97
2019-02-12T06:05:30.565Z,12.27
2019-02-12T06:08:01.907Z,12.67
2019-02-12T06:10:33.101Z,13.13
2019-02-12T06:13:04.427Z,13.17
2019-02-12T06:15:35.667Z,12.90
2019-02-12T06:18:06.977Z,11.67
2019-02-12T06:20:38.308Z,13.07
2019-02-12T06:23:09.585Z,11.60
2019-02-12T06:25:40.881Z,11.57
2019-02-12T06:28:12.201Z,12.00
2019-02-12T06:30:44.061Z,13.13
2019-02-12T06:33:15.569Z,11.63
2019-02-12T06:35:46.871Z,12.50
2019-02-12T06:38:18.162Z,11.30
2019-02-12T06:40:49.683Z,12.53
2019-02-12T06:43:20.984Z,12.13
2019-02-12T06:45:52.651Z,13.63
2019-02-12T06:48:23.819Z,11.70
2019-02-12T06:50:55.142Z,11.47
2019-02-12T06:53:26.436Z,11.57
2019-02-12T06:55:57.793Z,11.80
2019-02-12T06:58:29.082Z,10.50
2019-02-12T07:01:02.787Z,13.17
2019-02-12T07:04:04.667Z,10.53
2019-02-12T07:07:57.132Z,11.73
2019-02-12T07:10:35.634Z,11.23
2019-02-12T07:14:01.709Z,12.27
2019-02-12T07:17:28.810Z,10.43
2019-02-12T07:21:21.373Z,12.77
2019-02-12T07:24:49.346Z,11.37
2019-02-12T07:28:28.738Z,11.60
2019-02-12T07:31:53.515Z,12.60
2019-02-12T07:35:14.703Z,11.90
2019-02-12T07:38:57.590Z,12.67
2019-02-12T07:42:42.615Z,12.47
2019-02-12T07:46:15.882Z,12.47
2019-02-12T07:49:23.940Z,11.67
2019-02-12T07:52:50.838Z,12.27
2019-02-12T07:56:03.061Z,12.13
2019-02-12T07:59:33.145Z,12.70
2019-02-12T08:02:54.041Z,13.70
2019-02-12T08:05:52.874Z,13.30
2019-02-12T08:09:22.842Z,12.87
2019-02-12T08:12:47.444Z,13.50
2019-02-12T08:15:53.378Z,13.57
2019-02-12T08:19:05.831Z,12.80
2019-02-12T08:22:17.128Z,12.50
2019-02-12T08:25:37.794Z,12.93
2019-02-12T08:29:19.755Z,14.07
2019-02-12T08:32:39.253Z,12.10
2019-02-12T08:35:57.206Z,11.50
2019-02-12T08:39:10.248Z,13.30
2019-02-12T08:42:27.726Z,13.30
2019-02-12T08:45:46.953Z,13.93
2019-02-12T08:49:02.078Z,12.30
2019-02-12T08:52:03.083Z,12.77
2019-02-12T08:55:36.734Z,12.77
2019-02-12T08:59:09.386Z,12.67
2019-02-12T09:02:01.970Z,12.93
2019-02-12T09:05:22.225Z,11.97
2019-02-12T09:08:15.092Z,12.20
2019-02-12T09:12:22.693Z,11.97
2019-02-12T09:15:44.785Z,11.30
2019-02-12T09:19:07.871Z,11.63
2019-02-12T09:22:14.024Z,10.37
2019-02-12T09:25:52.126Z,9.33
2019-02-12T09:29:31.352Z,9.30
2019-02-12T09:32:52.445Z,10.97
2019-02-12T09:36:22.308Z,8.10
2019-02-12T09:39:26.988Z,9.20
2019-02-12T09:42:54.812Z,8.80
2019-02-12T09:46:05.168Z,8.57
2019-02-12T09:49:27.271Z,9.20
2019-02-12T09:52:57.443Z,8.93
2019-02-12T09:55:47.524Z,8.10
2019-02-12T09:58:49.666Z,8.23
2019-02-12T10:02:17.527Z,7.47
2019-02-12T10:05:27.400Z,7.77
2019-02-12T10:09:09.282Z,6.83
2019-02-12T10:12:20.632Z,7.50
2019-02-12T10:15:50.974Z,7.77
2019-02-12T10:19:03.340Z,7.80
2019-02-12T10:22:08.539Z,7.67
2019-02-12T10:25:18.340Z,8.47
2019-02-12T10:28:25.743Z,8.00
2019-02-12T10:31:41.957Z,8.83
2019-02-12T10:34:13.810Z,7.83
2019-02-12T10:36:45.222Z,8.40
2019-02-12T10:39:17.490Z,8.10
2019-02-12T10:41:48.821Z,7.70
2019-02-12T10:44:20.341Z,6.40
2019-02-12T10:46:51.754Z,7.37
2019-02-12T10:49:23.076Z,7.73
2019-02-12T10:51:54.434Z,7.87
2019-02-12T10:54:28.040Z,6.60
2019-02-12T10:57:01.848Z,7.43
2019-02-12T10:59:33.168Z,6.93
2019-02-12T11:02:04.450Z,6.23
2019-02-12T11:04:35.850Z,7.70
2019-02-12T11:07:07.135Z,5.93
2019-02-12T11:09:38.492Z,7.10
2019-02-12T11:12:09.738Z,6.53
2019-02-12T11:14:40.965Z,6.43
2019-02-12T11:17:12.223Z,5.80
2019-02-12T11:19:43.477Z,5.80
2019-02-12T11:22:14.829Z,6.03
2019-02-12T11:24:46.111Z,7.07
2019-02-12T11:27:17.482Z,5.97
2019-02-12T11:29:48.765Z,5.47
2019-02-12T11:32:20.024Z,5.27
2019-02-12T11:34:51.328Z,5.87
2019-02-12T11:37:22.626Z,6.67
2019-02-12T11:39:53.873Z,6.50
2019-02-12T11:42:25.532Z,6.93
2019-02-12T11:44:56.770Z,6.90
2019-02-12T11:47:28.027Z,8.33
2019-02-12T11:49:59.331Z,6.17
2019-02-12T11:52:30.679Z,7.50
2019-02-12T11:55:01.969Z,6.77
2019-02-12T11:57:33.212Z,6.17
2019-02-12T12:00:05.792Z,6.70
2019-02-12T12:02:41.877Z,6.83
2019-02-12T12:05:11.363Z,6.60
2019-02-12T12:07:42.525Z,5.43
2019-02-12T12:10:14.059Z,7.53
2019-02-12T12:12:45.327Z,7.53
2019-02-12T12:15:16.935Z,7.00
2019-02-12T12:17:48.156Z,9.37
2019-02-12T12:20:19.456Z,6.37
2019-02-12T12:22:50.773Z,7.93
2019-02-12T12:25:22.073Z,6.23
2019-02-12T12:27:53.419Z,6.67
2019-02-12T12:30:24.688Z,7.50
2019-02-12T12:32:56.594Z,6.70
2019-02-12T12:35:27.959Z,8.27
2019-02-12T12:37:59.219Z,7.20
2019-02-12T12:40:30.485Z,8.03
2019-02-12T12:43:01.769Z,7.10
2019-02-12T12:45:33.057Z,7.70
2019-02-12T12:48:04.521Z,8.43
2019-02-12T12:50:35.802Z,7.20
2019-02-12T12:53:06.999Z,7.10
2019-02-12T12:55:38.337Z,7.77
2019-02-12T12:58:09.624Z,6.70
2019-02-12T13:00:40.899Z,8.17
2019-02-12T13:03:13.508Z,6.73
2019-02-12T13:05:44.933Z,7.50
2019-02-12T13:08:16.299Z,9.20
2019-02-12T13:10:47.564Z,7.20
2019-02-12T13:13:18.827Z,7.83
2019-02-12T13:15:50.078Z,8.70
2019-02-12T13:18:21.505Z,6.93
2019-02-12T13:20:52.740Z,6.60
2019-02-12T13:23:24.128Z,7.73
2019-02-12T13:25:55.532Z,7.37
2019-02-12T13:28:26.768Z,10.37
2019-02-12T13:30:58.097Z,7.60
2019-02-12T13:33:30.598Z,6.80
2019-02-12T13:36:02.152Z,10.10
2019-02-12T13:38:34.245Z,12.27
2019-02-12T13:41:05.545Z,11.47
2019-02-12T13:43:36.796Z,8.70
2019-02-12T13:46:08.149Z,7.17
2019-02-12T13:48:39.530Z,7.93
2019-02-12T13:51:10.753Z,7.80
2019-02-12T13:53:42.003Z,7.10
2019-02-12T13:56:13.302Z,8.07
2019-02-12T13:58:44.610Z,9.80
2019-02-12T14:01:15.855Z,7.63
2019-02-12T14:03:47.396Z,7.30
2019-02-12T14:06:18.665Z,7.60
2019-02-12T14:08:49.999Z,7.43
2019-02-12T14:11:21.346Z,7.27
2019-02-12T14:13:52.685Z,7.77
2019-02-12T14:16:23.935Z,7.07
2019-02-12T14:18:55.296Z,6.93
2019-02-12T14:21:26.594Z,7.30
2019-02-12T14:23:58.070Z,5.83
2019-02-12T14:26:29.429Z,7.27
2019-02-12T14:29:00.753Z,7.80
2019-02-12T14:31:32.036Z,7.20
2019-02-12T14:34:03.327Z,8.40
2019-02-12T14:36:34.624Z,6.90
2019-02-12T14:39:06.809Z,7.57
2019-02-12T14:41:38.087Z,7.90
2019-02-12T14:44:09.403Z,8.83
2019-02-12T14:46:40.800Z,8.40
2019-02-12T14:49:12.122Z,8.20
2019-02-12T14:51:43.512Z,8.77
2019-02-12T14:54:14.876Z,10.17
2019-02-12T14:56:46.133Z,9.23
2019-02-12T14:59:17.281Z,7.70
2019-02-12T15:01:48.730Z,8.80
2019-02-12T15:04:20.688Z,9.43
2019-02-12T15:06:52.038Z,8.50
2019-02-12T15:09:23.530Z,9.37
2019-02-12T15:11:54.900Z,8.60
2019-02-12T15:14:29.310Z,9.40
2019-02-12T15:17:00.704Z,9.63
2019-02-12T15:19:31.989Z,8.23
2019-02-12T15:22:03.322Z,8.50
2019-02-12T15:24:34.526Z,9.57
2019-02-12T15:27:06.113Z,10.17
2019-02-12T15:29:37.483Z,9.30
2019-02-12T15:32:08.878Z,9.07
2019-02-12T15:34:40.366Z,8.63
2019-02-12T15:37:11.664Z,9.10
2019-02-12T15:39:43.338Z,8.50
2019-02-12T15:42:14.694Z,11.63
2019-02-12T15:44:46.035Z,10.10
2019-02-12T15:47:17.345Z,9.70
2019-02-12T15:49:48.579Z,10.73
2019-02-12T15:52:19.884Z,9.70
2019-02-12T15:54:51.244Z,8.80
2019-02-12T15:57:24.859Z,9.93
2019-02-12T15:59:56.227Z,9.77
2019-02-12T16:02:27.723Z,10.33
2019-02-12T16:04:58.936Z,13.40
2019-02-12T16:07:30.337Z,12.10
2019-02-12T16:10:02.040Z,14.17
2019-02-12T16:12:33.326Z,11.90
2019-02-12T16:15:04.682Z,10.17
2019-02-12T16:17:37.375Z,12.00
2019-02-12T16:20:10.167Z,11.20
2019-02-12T16:22:41.387Z,10.63
2019-02-12T16:25:25.831Z,14.77
2019-02-12T16:27:57.196Z,11.90
2019-02-12T16:30:28.522Z,10.80
2019-02-12T16:32:59.842Z,11.50
2019-02-12T16:35:31.102Z,24.70
2019-02-12T16:38:14.377Z,11.80
2019-02-12T16:40:45.651Z,12.23
2019-02-12T16:43:17.060Z,12.47
2019-02-12T16:45:58.113Z,11.83
2019-02-12T16:48:29.408Z,10.40
2019-02-12T16:51:00.646Z,12.00
2019-02-12T16:53:32.109Z,12.90
2019-02-12T16:56:08.301Z,12.43
2019-02-12T16:58:36.371Z,11.73
2019-02-12T17:01:07.653Z,13.07
2019-02-12T17:03:38.946Z,11.30
2019-02-12T17:06:11.835Z,12.43
2019-02-12T17:08:43.144Z,13.10
2019-02-12T17:11:14.392Z,11.97
2019-02-12T17:13:45.722Z,13.83
2019-02-12T17:16:17.000Z,12.33
2019-02-12T17:18:48.263Z,11.83
2019-02-12T17:21:19.559Z,13.30
2019-02-12T17:23:50.836Z,14.83
2019-02-12T17:26:22.123Z,13.60
2019-02-12T17:28:53.474Z,13.70
2019-02-12T17:31:24.691Z,13.20
2019-02-12T17:33:55.980Z,13.47
2019-02-12T17:36:27.299Z,12.13
2019-02-12T17:38:58.647Z,14.10
2019-02-12T17:41:30.086Z,13.63
2019-02-12T17:44:01.275Z,12.67
2019-02-12T17:46:32.591Z,12.70
2019-02-12T17:49:03.876Z,14.83
2019-02-12T17:51:35.246Z,14.73
2019-02-12T17:54:06.511Z,13.40
2019-02-12T17:56:37.812Z,13.33
2019-02-12T17:59:08.976Z,13.90
2019-02-12T18:01:40.570Z,13.73
2019-02-12T18:04:11.926Z,14.33
2019-02-12T18:06:43.491Z,14.40
2019-02-12T18:09:14.837Z,15.43
2019-02-12T18:11:46.179Z,13.07
2019-02-12T18:14:17.536Z,14.93
2019-02-12T18:16:48.858Z,15.50
2019-02-12T18:19:20.255Z,14.97
2019-02-12T18:21:51.489Z,14.20
2019-02-12T18:24:22.851Z,13.77
2019-02-12T18:26:54.238Z,13.77
2019-02-12T18:29:25.616Z,13.87
2019-02-12T18:31:56.933Z,13.90
2019-02-12T18:34:28.455Z,15.90
2019-02-12T18:36:59.877Z,13.03
2019-02-12T18:39:42.963Z,13.20
2019-02-12T18:42:14.517Z,15.07
2019-02-12T18:44:45.785Z,15.03
2019-02-12T18:47:17.030Z,14.47
2019-02-12T18:49:48.354Z,14.40
2019-02-12T18:52:19.698Z,15.80
2019-02-12T18:54:50.950Z,16.07
2019-02-12T18:57:24.667Z,15.80
2019-02-12T18:59:55.912Z,15.90
2019-02-12T19:02:27.911Z,14.33
2019-02-12T19:04:59.198Z,14.87
2019-02-12T19:07:30.650Z,14.97
2019-02-12T19:10:01.942Z,15.80
2019-02-12T19:12:33.305Z,16.60
2019-02-12T19:15:05.657Z,18.00
2019-02-12T19:17:37.099Z,16.57
2019-02-12T19:20:10.725Z,15.30
2019-02-12T19:22:42.016Z,14.50
2019-02-12T19:25:13.510Z,16.90
2019-02-12T19:27:44.782Z,16.43
2019-02-12T19:30:16.782Z,15.70
2019-02-12T19:32:48.043Z,15.23
2019-02-12T19:35:19.373Z,16.60
2019-02-12T19:37:50.633Z,13.90
2019-02-12T19:40:21.993Z,15.40
2019-02-12T19:42:53.289Z,15.47
2019-02-12T19:45:24.589Z,15.63
2019-02-12T19:47:55.972Z,17.60
2019-02-12T19:50:27.297Z,17.40
2019-02-12T19:52:58.654Z,17.40
2019-02-12T19:55:30.040Z,18.00
2019-02-12T19:58:01.497Z,17.60
2019-02-12T20:00:32.869Z,17.00
2019-02-12T20:03:04.213Z,19.23
2019-02-12T20:05:35.418Z,17.67
2019-02-12T20:08:06.707Z,17.47
2019-02-12T20:10:38.020Z,18.33
2019-02-12T20:13:09.415Z,20.70
2019-02-12T20:15:40.732Z,19.53
2019-02-12T20:18:12.149Z,19.23
2019-02-12T20:20:43.438Z,19.77
2019-02-12T20:23:14.793Z,18.83
2019-02-12T20:25:46.101Z,18.70
2019-02-12T20:28:17.383Z,19.20
2019-02-12T20:30:48.776Z,18.73
2019-02-12T20:33:20.100Z,18.77
2019-02-12T20:35:51.364Z,18.27
2019-02-12T20:38:22.738Z,17.80
2019-02-12T20:40:54.233Z,20.27
2019-02-12T20:43:25.521Z,16.97
2019-02-12T20:45:56.832Z,19.37
2019-02-12T20:48:28.190Z,20.50
2019-02-12T20:50:59.505Z,21.70
2019-02-12T20:53:30.780Z,21.10
2019-02-12T20:56:02.054Z,21.07
2019-02-12T20:58:33.349Z,19.13
2019-02-12T21:01:04.717Z,19.57
2019-02-12T21:03:36.104Z,19.67
2019-02-12T21:06:11.688Z,19.67
2019-02-12T21:08:44.024Z,20.87
2019-02-12T21:11:15.576Z,20.47
2019-02-12T21:13:46.856Z,17.50
2019-02-12T21:16:18.199Z,19.23
2019-02-12T21:18:49.741Z,18.83
2019-02-12T21:21:21.058Z,19.03
2019-02-12T21:23:52.373Z,17.03
2019-02-12T21:26:23.737Z,15.87
2019-02-12T21:28:55.027Z,18.07
2019-02-12T21:31:26.315Z,17.03
2019-02-12T21:33:57.662Z,16.67
2019-02-12T21:36:29.426Z,16.57
2019-02-12T21:39:00.770Z,17.33
2019-02-12T21:41:32.115Z,15.57
2019-02-12T21:44:03.533Z,15.80
2019-02-12T21:46:34.902Z,16.07
2019-02-12T21:49:06.192Z,14.80
2019-02-12T21:51:41.135Z,16.80
2019-02-12T21:54:12.554Z,14.80
2019-02-12T21:56:43.863Z,15.03
2019-02-12T21:59:15.177Z,16.93
2019-02-12T22:01:46.450Z,15.17
2019-02-12T22:04:17.821Z,15.40
2019-02-12T22:06:49.142Z,15.63
2019-02-12T22:09:20.423Z,14.97
2019-02-12T22:11:51.790Z,16.17
2019-02-12T22:14:23.047Z,15.63
2019-02-12T22:16:54.406Z,17.53
2019-02-12T22:19:28.548Z,14.50
2019-02-12T22:21:59.922Z,16.63
2019-02-12T22:24:31.156Z,17.13
2019-02-12T22:27:02.478Z,16.43
2019-02-12T22:29:33.726Z,16.10
2019-02-12T22:32:04.994Z,15.93
2019-02-12T22:34:36.282Z,15.90
2019-02-12T22:37:07.610Z,16.17
2019-02-12T22:39:38.983Z,17.93
2019-02-12T22:42:10.322Z,16.50
2019-02-12T22:44:41.656Z,17.03
2019-02-12T22:47:12.917Z,16.70
2019-02-12T22:49:44.346Z,17.60
2019-02-12T22:52:15.612Z,15.80
2019-02-12T22:54:49.273Z,16.60
2019-02-12T22:57:20.509Z,16.67
2019-02-12T22:59:51.876Z,17.10
2019-02-12T23:02:23.036Z,15.13
2019-02-12T23:04:54.323Z,16.90
2019-02-12T23:07:25.710Z,16.83
2019-02-12T23:09:56.949Z,17.43
2019-02-12T23:12:32.673Z,16.50
2019-02-12T23:15:24.385Z,17.80
2019-02-12T23:18:01.090Z,16.17
2019-02-12T23:20:40.270Z,15.83
2019-02-12T23:23:23.599Z,16.17
2019-02-12T23:25:59.747Z,16.37
2019-02-12T23:28:39.706Z,15.03
2019-02-12T23:31:14.586Z,18.10
2019-02-12T23:34:06.584Z,15.87
2019-02-12T23:36:50.808Z,16.40
2019-02-12T23:39:36.196Z,15.73
2019-02-12T23:42:18.906Z,17.57
2019-02-12T23:44:50.493Z,18.37
2019-02-12T23:47:21.751Z,16.43
2019-02-12T23:49:53.096Z,16.90
2019-02-12T23:52:31.824Z,18.57
2019-02-12T23:55:03.082Z,16.53
2019-02-12T23:57:34.403Z,16.50
